< < Back
Terminal Aerodrome Forecast


Current Version              Previous Versions:   1  2  3  4  5  6  7  8  9  

Terminal Aerodrome Forecast

396
FTUS42 KCAE 020155 AAA
TAFCAE
TAF AMD
KCAE 020155Z 0202/0224 VRB04KT P6SM FEW100
      TEMPO 0202/0203 5SM -SHRA BKN050
     FM021500 21007KT P6SM SCT030 SCT250=



Latest METAR

752
SAUS80 KWBC 020200 RRB
MTRCAE
METAR KCAE 020156Z 19004KT 7SM -RA SCT060 31/22 A2997 RMK AO2 RAB52
SLP145 P0001 T03060217


USA.gov is the U.S. government's official web portal to all federal, state and local government web resources and services.